sensor_id;sensor_type;location;lat;lon;timestamp;P1;durP1;ratioP1;P2;durP2;ratioP2
21546;SDS011;41275;51.912;4.388;2023-03-14T00:05:17;9.10;;;1.50;;
21546;SDS011;41275;51.912;4.388;2023-03-14T00:10:38;5.77;;;1.30;;
21546;SDS011;41275;51.912;4.388;2023-03-14T00:16:07;8.02;;;1.60;;
21546;SDS011;41275;51.912;4.388;2023-03-14T00:21:30;11.23;;;1.73;;
21546;SDS011;41275;51.912;4.388;2023-03-14T00:26:51;9.13;;;1.52;;
21546;SDS011;41275;51.912;4.388;2023-03-14T00:32:12;9.65;;;1.45;;
21546;SDS011;41275;51.912;4.388;2023-03-14T00:37:34;14.23;;;2.10;;
21546;SDS011;41275;51.912;4.388;2023-03-14T00:42:55;8.52;;;2.10;;
21546;SDS011;41275;51.912;4.388;2023-03-14T00:48:17;9.10;;;1.63;;
21546;SDS011;41275;51.912;4.388;2023-03-14T00:53:39;7.13;;;1.67;;
21546;SDS011;41275;51.912;4.388;2023-03-14T00:59:00;8.40;;;1.88;;
21546;SDS011;41275;51.912;4.388;2023-03-14T01:04:22;9.70;;;1.83;;
21546;SDS011;41275;51.912;4.388;2023-03-14T01:09:43;13.38;;;2.17;;
21546;SDS011;41275;51.912;4.388;2023-03-14T01:15:04;13.90;;;1.77;;
21546;SDS011;41275;51.912;4.388;2023-03-14T01:20:26;14.70;;;1.60;;
21546;SDS011;41275;51.912;4.388;2023-03-14T01:25:47;9.65;;;1.77;;
21546;SDS011;41275;51.912;4.388;2023-03-14T01:31:09;11.50;;;2.00;;
21546;SDS011;41275;51.912;4.388;2023-03-14T01:36:30;9.05;;;1.63;;
21546;SDS011;41275;51.912;4.388;2023-03-14T01:41:52;9.00;;;1.58;;
21546;SDS011;41275;51.912;4.388;2023-03-14T01:47:13;9.57;;;1.40;;
21546;SDS011;41275;51.912;4.388;2023-03-14T01:52:35;11.60;;;1.75;;
21546;SDS011;41275;51.912;4.388;2023-03-14T01:58:03;10.13;;;1.60;;
21546;SDS011;41275;51.912;4.388;2023-03-14T02:03:25;8.82;;;1.95;;
21546;SDS011;41275;51.912;4.388;2023-03-14T02:08:50;5.93;;;1.38;;
21546;SDS011;41275;51.912;4.388;2023-03-14T02:14:14;7.13;;;1.50;;
21546;SDS011;41275;51.912;4.388;2023-03-14T02:31:09;8.00;;;1.63;;
21546;SDS011;41275;51.912;4.388;2023-03-14T02:36:31;8.30;;;1.90;;
21546;SDS011;41275;51.912;4.388;2023-03-14T02:41:52;9.27;;;2.10;;
21546;SDS011;41275;51.912;4.388;2023-03-14T02:47:13;7.57;;;1.42;;
21546;SDS011;41275;51.912;4.388;2023-03-14T02:52:34;8.80;;;1.80;;
21546;SDS011;41275;51.912;4.388;2023-03-14T02:57:56;7.57;;;1.70;;
21546;SDS011;41275;51.912;4.388;2023-03-14T03:03:17;9.27;;;1.77;;
21546;SDS011;41275;51.912;4.388;2023-03-14T03:08:39;11.90;;;1.92;;
21546;SDS011;41275;51.912;4.388;2023-03-14T03:14:00;10.40;;;1.92;;
21546;SDS011;41275;51.912;4.388;2023-03-14T03:19:21;6.38;;;1.70;;
21546;SDS011;41275;51.912;4.388;2023-03-14T03:24:42;8.10;;;1.87;;
21546;SDS011;41275;51.912;4.388;2023-03-14T03:30:05;5.97;;;1.50;;
21546;SDS011;41275;51.912;4.388;2023-03-14T03:35:27;12.75;;;1.98;;
21546;SDS011;41275;51.912;4.388;2023-03-14T03:40:48;9.15;;;1.67;;
21546;SDS011;41275;51.912;4.388;2023-03-14T03:46:09;12.32;;;2.30;;
21546;SDS011;41275;51.912;4.388;2023-03-14T03:51:30;8.93;;;1.60;;
21546;SDS011;41275;51.912;4.388;2023-03-14T03:56:52;9.27;;;1.50;;
21546;SDS011;41275;51.912;4.388;2023-03-14T04:02:13;8.55;;;1.45;;
21546;SDS011;41275;51.912;4.388;2023-03-14T04:07:34;6.88;;;1.60;;
21546;SDS011;41275;51.912;4.388;2023-03-14T04:12:55;7.37;;;2.07;;
21546;SDS011;41275;51.912;4.388;2023-03-14T04:18:22;6.93;;;1.80;;
21546;SDS011;41275;51.912;4.388;2023-03-14T04:23:45;9.80;;;2.27;;
21546;SDS011;41275;51.912;4.388;2023-03-14T04:29:06;7.78;;;1.85;;
21546;SDS011;41275;51.912;4.388;2023-03-14T04:34:27;7.07;;;1.70;;
21546;SDS011;41275;51.912;4.388;2023-03-14T04:39:49;8.82;;;1.80;;
21546;SDS011;41275;51.912;4.388;2023-03-14T04:45:10;2.60;;;1.20;;
21546;SDS011;41275;51.912;4.388;2023-03-14T04:50:31;6.30;;;1.35;;
21546;SDS011;41275;51.912;4.388;2023-03-14T04:55:53;5.50;;;1.38;;
21546;SDS011;41275;51.912;4.388;2023-03-14T05:01:15;5.47;;;1.30;;
21546;SDS011;41275;51.912;4.388;2023-03-14T05:06:36;3.97;;;1.30;;
21546;SDS011;41275;51.912;4.388;2023-03-14T05:11:58;3.10;;;1.20;;
21546;SDS011;41275;51.912;4.388;2023-03-14T05:17:19;9.27;;;1.70;;
21546;SDS011;41275;51.912;4.388;2023-03-14T05:22:40;6.37;;;1.73;;
21546;SDS011;41275;51.912;4.388;2023-03-14T05:28:04;5.00;;;2.00;;
21546;SDS011;41275;51.912;4.388;2023-03-14T05:33:58;8.40;;;1.88;;
21546;SDS011;41275;51.912;4.388;2023-03-14T05:39:19;6.80;;;0.75;;
21546;SDS011;41275;51.912;4.388;2023-03-14T05:44:41;3.57;;;0.67;;
21546;SDS011;41275;51.912;4.388;2023-03-14T05:50:02;5.10;;;1.03;;
21546;SDS011;41275;51.912;4.388;2023-03-14T05:55:23;5.43;;;0.87;;
21546;SDS011;41275;51.912;4.388;2023-03-14T06:00:44;7.73;;;0.90;;
21546;SDS011;41275;51.912;4.388;2023-03-14T06:06:06;5.13;;;0.60;;
21546;SDS011;41275;51.912;4.388;2023-03-14T06:11:27;3.63;;;0.80;;
21546;SDS011;41275;51.912;4.388;2023-03-14T06:16:48;5.40;;;0.93;;
21546;SDS011;41275;51.912;4.388;2023-03-14T06:22:09;9.77;;;0.97;;
21546;SDS011;41275;51.912;4.388;2023-03-14T06:27:31;6.57;;;0.80;;
21546;SDS011;41275;51.912;4.388;2023-03-14T06:32:52;2.00;;;0.50;;
21546;SDS011;41275;51.912;4.388;2023-03-14T06:38:13;7.27;;;0.80;;
21546;SDS011;41275;51.912;4.388;2023-03-14T06:43:34;7.57;;;0.80;;
21546;SDS011;41275;51.912;4.388;2023-03-14T06:48:55;5.97;;;1.00;;
21546;SDS011;41275;51.912;4.388;2023-03-14T06:54:17;6.40;;;0.80;;
21546;SDS011;41275;51.912;4.388;2023-03-14T06:59:38;5.22;;;0.88;;
21546;SDS011;41275;51.912;4.388;2023-03-14T07:04:59;6.65;;;1.00;;
21546;SDS011;41275;51.912;4.388;2023-03-14T07:10:21;9.30;;;0.95;;
21546;SDS011;41275;51.912;4.388;2023-03-14T07:15:42;7.53;;;1.02;;
21546;SDS011;41275;51.912;4.388;2023-03-14T07:21:07;5.93;;;0.90;;
21546;SDS011;41275;51.912;4.388;2023-03-14T07:26:29;7.53;;;1.05;;
21546;SDS011;41275;51.912;4.388;2023-03-14T07:31:51;4.93;;;0.97;;
21546;SDS011;41275;51.912;4.388;2023-03-14T07:37:12;6.30;;;0.80;;
21546;SDS011;41275;51.912;4.388;2023-03-14T07:42:33;6.23;;;0.73;;
21546;SDS011;41275;51.912;4.388;2023-03-14T07:47:54;8.97;;;0.97;;
21546;SDS011;41275;51.912;4.388;2023-03-14T07:53:18;6.60;;;0.65;;
21546;SDS011;41275;51.912;4.388;2023-03-14T07:58:39;7.97;;;1.23;;
21546;SDS011;41275;51.912;4.388;2023-03-14T08:04:01;5.90;;;1.00;;
21546;SDS011;41275;51.912;4.388;2023-03-14T08:09:22;8.70;;;1.20;;
21546;SDS011;41275;51.912;4.388;2023-03-14T08:14:43;6.72;;;0.90;;
21546;SDS011;41275;51.912;4.388;2023-03-14T08:20:05;5.18;;;0.70;;
21546;SDS011;41275;51.912;4.388;2023-03-14T08:25:31;7.67;;;0.90;;
21546;SDS011;41275;51.912;4.388;2023-03-14T08:30:54;6.35;;;0.95;;
21546;SDS011;41275;51.912;4.388;2023-03-14T08:36:15;6.82;;;0.90;;
21546;SDS011;41275;51.912;4.388;2023-03-14T08:41:37;7.85;;;1.15;;
21546;SDS011;41275;51.912;4.388;2023-03-14T08:47:00;6.03;;;0.80;;
21546;SDS011;41275;51.912;4.388;2023-03-14T08:52:22;7.95;;;1.35;;
21546;SDS011;41275;51.912;4.388;2023-03-14T08:57:43;5.78;;;1.50;;
21546;SDS011;41275;51.912;4.388;2023-03-14T09:03:04;10.30;;;1.30;;
21546;SDS011;41275;51.912;4.388;2023-03-14T09:08:25;7.85;;;1.02;;
21546;SDS011;41275;51.912;4.388;2023-03-14T09:13:47;8.48;;;1.58;;
21546;SDS011;41275;51.912;4.388;2023-03-14T09:19:09;8.73;;;1.50;;
21546;SDS011;41275;51.912;4.388;2023-03-14T09:24:30;10.73;;;1.52;;
21546;SDS011;41275;51.912;4.388;2023-03-14T09:29:51;12.93;;;1.93;;
21546;SDS011;41275;51.912;4.388;2023-03-14T09:35:13;17.60;;;2.20;;
21546;SDS011;41275;51.912;4.388;2023-03-14T09:40:35;15.40;;;2.00;;
21546;SDS011;41275;51.912;4.388;2023-03-14T09:45:57;13.83;;;1.93;;
21546;SDS011;41275;51.912;4.388;2023-03-14T09:51:22;11.90;;;1.70;;
21546;SDS011;41275;51.912;4.388;2023-03-14T09:56:44;13.95;;;2.00;;
21546;SDS011;41275;51.912;4.388;2023-03-14T10:02:25;12.90;;;2.03;;
21546;SDS011;41275;51.912;4.388;2023-03-14T10:07:52;11.20;;;1.95;;
21546;SDS011;41275;51.912;4.388;2023-03-14T10:13:17;15.02;;;2.10;;
21546;SDS011;41275;51.912;4.388;2023-03-14T10:18:38;16.40;;;2.67;;
21546;SDS011;41275;51.912;4.388;2023-03-14T10:29:57;20.60;;;2.53;;
21546;SDS011;41275;51.912;4.388;2023-03-14T10:35:21;16.07;;;2.53;;
21546;SDS011;41275;51.912;4.388;2023-03-14T10:40:47;19.50;;;2.55;;
21546;SDS011;41275;51.912;4.388;2023-03-14T10:46:14;16.52;;;2.65;;
21546;SDS011;41275;51.912;4.388;2023-03-14T10:51:37;17.93;;;2.73;;
21546;SDS011;41275;51.912;4.388;2023-03-14T10:56:59;14.98;;;2.40;;
21546;SDS011;41275;51.912;4.388;2023-03-14T11:02:27;13.63;;;2.30;;
21546;SDS011;41275;51.912;4.388;2023-03-14T11:25:57;15.38;;;2.08;;
21546;SDS011;41275;51.912;4.388;2023-03-14T11:31:40;11.48;;;1.75;;
21546;SDS011;41275;51.912;4.388;2023-03-14T11:37:06;15.95;;;2.20;;
21546;SDS011;41275;51.912;4.388;2023-03-14T11:43:12;13.32;;;1.73;;
21546;SDS011;41275;51.912;4.388;2023-03-14T11:48:37;8.05;;;1.48;;
21546;SDS011;41275;51.912;4.388;2023-03-14T12:05:43;7.75;;;1.40;;
21546;SDS011;41275;51.912;4.388;2023-03-14T12:11:22;6.30;;;1.25;;
21546;SDS011;41275;51.912;4.388;2023-03-14T12:16:45;7.67;;;1.80;;
21546;SDS011;41275;51.912;4.388;2023-03-14T12:22:23;7.70;;;1.60;;
21546;SDS011;41275;51.912;4.388;2023-03-14T12:38:43;10.00;;;1.27;;
21546;SDS011;41275;51.912;4.388;2023-03-14T12:49:50;6.72;;;1.27;;
21546;SDS011;41275;51.912;4.388;2023-03-14T12:55:24;7.60;;;1.30;;
21546;SDS011;41275;51.912;4.388;2023-03-14T13:00:55;5.45;;;1.13;;
21546;SDS011;41275;51.912;4.388;2023-03-14T13:12:10;9.10;;;1.37;;
21546;SDS011;41275;51.912;4.388;2023-03-14T13:17:33;6.10;;;1.05;;
21546;SDS011;41275;51.912;4.388;2023-03-14T13:22:55;7.80;;;1.17;;
21546;SDS011;41275;51.912;4.388;2023-03-14T13:28:18;10.43;;;1.23;;
21546;SDS011;41275;51.912;4.388;2023-03-14T13:33:40;7.03;;;1.20;;
21546;SDS011;41275;51.912;4.388;2023-03-14T13:39:02;7.45;;;1.13;;
21546;SDS011;41275;51.912;4.388;2023-03-14T13:44:27;8.60;;;1.50;;
21546;SDS011;41275;51.912;4.388;2023-03-14T13:49:54;6.40;;;1.20;;
21546;SDS011;41275;51.912;4.388;2023-03-14T13:55:17;9.50;;;1.70;;
21546;SDS011;41275;51.912;4.388;2023-03-14T14:00:39;9.45;;;1.80;;
21546;SDS011;41275;51.912;4.388;2023-03-14T14:06:00;9.03;;;1.40;;
21546;SDS011;41275;51.912;4.388;2023-03-14T14:16:58;6.38;;;1.20;;
21546;SDS011;41275;51.912;4.388;2023-03-14T14:22:22;9.73;;;1.30;;
21546;SDS011;41275;51.912;4.388;2023-03-14T14:27:44;6.83;;;1.23;;
21546;SDS011;41275;51.912;4.388;2023-03-14T14:33:17;11.07;;;1.20;;
21546;SDS011;41275;51.912;4.388;2023-03-14T14:38:40;9.18;;;1.45;;
21546;SDS011;41275;51.912;4.388;2023-03-14T14:44:02;10.23;;;1.40;;
21546;SDS011;41275;51.912;4.388;2023-03-14T14:49:29;12.70;;;1.63;;
21546;SDS011;41275;51.912;4.388;2023-03-14T14:54:52;9.43;;;1.80;;
21546;SDS011;41275;51.912;4.388;2023-03-14T15:00:19;6.80;;;1.25;;
21546;SDS011;41275;51.912;4.388;2023-03-14T15:05:42;7.67;;;1.20;;
21546;SDS011;41275;51.912;4.388;2023-03-14T15:11:03;6.73;;;0.90;;
21546;SDS011;41275;51.912;4.388;2023-03-14T15:16:28;5.80;;;1.10;;
21546;SDS011;41275;51.912;4.388;2023-03-14T15:21:52;6.63;;;1.00;;
21546;SDS011;41275;51.912;4.388;2023-03-14T15:27:14;5.07;;;0.88;;
21546;SDS011;41275;51.912;4.388;2023-03-14T15:32:37;5.88;;;1.13;;
21546;SDS011;41275;51.912;4.388;2023-03-14T15:37:58;10.00;;;1.42;;
21546;SDS011;41275;51.912;4.388;2023-03-14T15:43:20;6.40;;;1.08;;
21546;SDS011;41275;51.912;4.388;2023-03-14T15:48:41;6.35;;;1.00;;
21546;SDS011;41275;51.912;4.388;2023-03-14T15:54:02;7.13;;;1.13;;
21546;SDS011;41275;51.912;4.388;2023-03-14T15:59:24;6.47;;;1.00;;
21546;SDS011;41275;51.912;4.388;2023-03-14T16:04:45;6.90;;;0.93;;
21546;SDS011;41275;51.912;4.388;2023-03-14T16:10:07;7.63;;;1.10;;
21546;SDS011;41275;51.912;4.388;2023-03-14T16:15:30;9.75;;;1.13;;
21546;SDS011;41275;51.912;4.388;2023-03-14T16:20:55;7.60;;;1.08;;
21546;SDS011;41275;51.912;4.388;2023-03-14T16:26:19;6.68;;;0.93;;
21546;SDS011;41275;51.912;4.388;2023-03-14T16:31:40;6.75;;;1.13;;
21546;SDS011;41275;51.912;4.388;2023-03-14T16:37:02;9.55;;;1.20;;
21546;SDS011;41275;51.912;4.388;2023-03-14T16:42:24;10.93;;;1.50;;
21546;SDS011;41275;51.912;4.388;2023-03-14T16:47:45;9.57;;;1.43;;
21546;SDS011;41275;51.912;4.388;2023-03-14T16:53:06;5.90;;;1.10;;
21546;SDS011;41275;51.912;4.388;2023-03-14T16:58:27;10.60;;;1.13;;
21546;SDS011;41275;51.912;4.388;2023-03-14T17:03:51;6.07;;;1.20;;
21546;SDS011;41275;51.912;4.388;2023-03-14T17:09:12;7.47;;;1.30;;
21546;SDS011;41275;51.912;4.388;2023-03-14T17:14:33;6.37;;;1.00;;
21546;SDS011;41275;51.912;4.388;2023-03-14T17:19:54;9.33;;;1.37;;
21546;SDS011;41275;51.912;4.388;2023-03-14T17:25:16;6.93;;;1.07;;
21546;SDS011;41275;51.912;4.388;2023-03-14T17:30:37;9.77;;;1.53;;
21546;SDS011;41275;51.912;4.388;2023-03-14T17:35:58;11.70;;;1.40;;
21546;SDS011;41275;51.912;4.388;2023-03-14T17:41:19;12.20;;;1.60;;
21546;SDS011;41275;51.912;4.388;2023-03-14T17:46:41;10.00;;;1.50;;
21546;SDS011;41275;51.912;4.388;2023-03-14T17:52:02;8.97;;;2.03;;
21546;SDS011;41275;51.912;4.388;2023-03-14T17:57:23;9.97;;;1.73;;
21546;SDS011;41275;51.912;4.388;2023-03-14T18:02:44;7.97;;;1.70;;
21546;SDS011;41275;51.912;4.388;2023-03-14T18:08:06;9.00;;;1.95;;
21546;SDS011;41275;51.912;4.388;2023-03-14T18:13:31;5.75;;;1.45;;
21546;SDS011;41275;51.912;4.388;2023-03-14T18:18:52;5.93;;;1.40;;
21546;SDS011;41275;51.912;4.388;2023-03-14T18:24:14;11.60;;;2.80;;
21546;SDS011;41275;51.912;4.388;2023-03-14T18:29:35;7.40;;;1.70;;
21546;SDS011;41275;51.912;4.388;2023-03-14T18:34:57;8.60;;;1.83;;
21546;SDS011;41275;51.912;4.388;2023-03-14T18:40:18;7.97;;;1.88;;
21546;SDS011;41275;51.912;4.388;2023-03-14T18:45:40;9.88;;;2.53;;
21546;SDS011;41275;51.912;4.388;2023-03-14T18:51:01;11.05;;;2.30;;
21546;SDS011;41275;51.912;4.388;2023-03-14T18:56:24;11.00;;;2.38;;
21546;SDS011;41275;51.912;4.388;2023-03-14T19:01:46;9.63;;;2.10;;
21546;SDS011;41275;51.912;4.388;2023-03-14T19:07:07;13.00;;;2.40;;
21546;SDS011;41275;51.912;4.388;2023-03-14T19:12:28;6.33;;;1.93;;
21546;SDS011;41275;51.912;4.388;2023-03-14T19:17:50;10.98;;;2.30;;
21546;SDS011;41275;51.912;4.388;2023-03-14T19:23:11;15.90;;;3.65;;
21546;SDS011;41275;51.912;4.388;2023-03-14T19:28:35;10.23;;;2.60;;
21546;SDS011;41275;51.912;4.388;2023-03-14T19:33:56;12.80;;;2.53;;
21546;SDS011;41275;51.912;4.388;2023-03-14T19:39:18;10.70;;;2.33;;
21546;SDS011;41275;51.912;4.388;2023-03-14T19:44:39;12.65;;;2.08;;
21546;SDS011;41275;51.912;4.388;2023-03-14T19:50:01;12.30;;;2.20;;
21546;SDS011;41275;51.912;4.388;2023-03-14T19:55:23;10.50;;;2.00;;
21546;SDS011;41275;51.912;4.388;2023-03-14T20:00:45;11.63;;;2.15;;
21546;SDS011;41275;51.912;4.388;2023-03-14T20:06:08;5.90;;;1.48;;
21546;SDS011;41275;51.912;4.388;2023-03-14T20:11:32;12.05;;;2.20;;
21546;SDS011;41275;51.912;4.388;2023-03-14T20:16:55;10.90;;;1.92;;
21546;SDS011;41275;51.912;4.388;2023-03-14T20:22:16;9.63;;;1.70;;
21546;SDS011;41275;51.912;4.388;2023-03-14T20:27:37;8.97;;;2.20;;
21546;SDS011;41275;51.912;4.388;2023-03-14T20:33:00;10.57;;;2.13;;
21546;SDS011;41275;51.912;4.388;2023-03-14T20:38:24;12.27;;;2.03;;
21546;SDS011;41275;51.912;4.388;2023-03-14T20:43:46;8.30;;;1.90;;
21546;SDS011;41275;51.912;4.388;2023-03-14T20:49:08;8.52;;;1.60;;
21546;SDS011;41275;51.912;4.388;2023-03-14T20:54:30;8.32;;;1.90;;
21546;SDS011;41275;51.912;4.388;2023-03-14T20:59:51;7.22;;;1.27;;
21546;SDS011;41275;51.912;4.388;2023-03-14T21:05:13;4.82;;;0.88;;
21546;SDS011;41275;51.912;4.388;2023-03-14T21:10:34;5.93;;;1.23;;
21546;SDS011;41275;51.912;4.388;2023-03-14T21:15:58;5.30;;;1.17;;
21546;SDS011;41275;51.912;4.388;2023-03-14T21:21:20;6.93;;;0.93;;
21546;SDS011;41275;51.912;4.388;2023-03-14T21:26:42;6.25;;;0.95;;
21546;SDS011;41275;51.912;4.388;2023-03-14T21:32:03;4.85;;;0.57;;
21546;SDS011;41275;51.912;4.388;2023-03-14T21:37:24;2.60;;;0.75;;
21546;SDS011;41275;51.912;4.388;2023-03-14T21:42:47;5.05;;;0.85;;
21546;SDS011;41275;51.912;4.388;2023-03-14T21:48:08;4.75;;;0.70;;
21546;SDS011;41275;51.912;4.388;2023-03-14T21:53:30;4.13;;;0.73;;
21546;SDS011;41275;51.912;4.388;2023-03-14T21:58:52;2.53;;;0.80;;
21546;SDS011;41275;51.912;4.388;2023-03-14T22:04:15;2.33;;;0.60;;
21546;SDS011;41275;51.912;4.388;2023-03-14T22:09:41;1.58;;;0.65;;
21546;SDS011;41275;51.912;4.388;2023-03-14T22:15:04;2.83;;;0.80;;
21546;SDS011;41275;51.912;4.388;2023-03-14T22:20:27;5.77;;;0.80;;
21546;SDS011;41275;51.912;4.388;2023-03-14T22:25:48;3.40;;;1.20;;
21546;SDS011;41275;51.912;4.388;2023-03-14T22:31:09;1.30;;;0.60;;
21546;SDS011;41275;51.912;4.388;2023-03-14T22:36:30;3.35;;;0.80;;
21546;SDS011;41275;51.912;4.388;2023-03-14T22:41:52;5.30;;;0.50;;
21546;SDS011;41275;51.912;4.388;2023-03-14T22:47:14;2.00;;;0.30;;
21546;SDS011;41275;51.912;4.388;2023-03-14T22:52:35;2.77;;;0.67;;
21546;SDS011;41275;51.912;4.388;2023-03-14T22:57:56;1.30;;;0.30;;
21546;SDS011;41275;51.912;4.388;2023-03-14T23:03:18;3.22;;;0.60;;
21546;SDS011;41275;51.912;4.388;2023-03-14T23:08:40;2.55;;;0.55;;
21546;SDS011;41275;51.912;4.388;2023-03-14T23:14:02;1.90;;;0.50;;
21546;SDS011;41275;51.912;4.388;2023-03-14T23:19:24;5.80;;;0.90;;
21546;SDS011;41275;51.912;4.388;2023-03-14T23:24:48;4.47;;;0.65;;
21546;SDS011;41275;51.912;4.388;2023-03-14T23:30:11;4.00;;;0.68;;
21546;SDS011;41275;51.912;4.388;2023-03-14T23:35:34;7.10;;;1.13;;
21546;SDS011;41275;51.912;4.388;2023-03-14T23:40:55;4.47;;;1.00;;
21546;SDS011;41275;51.912;4.388;2023-03-14T23:46:17;3.73;;;1.00;;
21546;SDS011;41275;51.912;4.388;2023-03-14T23:51:39;2.63;;;0.60;;
21546;SDS011;41275;51.912;4.388;2023-03-14T23:57:00;2.83;;;0.70;;
